sensor_id;sensor_type;location;lat;lon;timestamp;temperature;humidity
3198;DHT22;1611;49.394;11.136;2022-11-20T00:00:15;2.50;67.70
3198;DHT22;1611;49.394;11.136;2022-11-20T00:02:42;2.50;68.30
3198;DHT22;1611;49.394;11.136;2022-11-20T00:05:09;2.60;68.40
3198;DHT22;1611;49.394;11.136;2022-11-20T00:07:35;2.60;67.90
3198;DHT22;1611;49.394;11.136;2022-11-20T00:10:04;2.60;68.00
3198;DHT22;1611;49.394;11.136;2022-11-20T00:12:31;2.60;68.10
3198;DHT22;1611;49.394;11.136;2022-11-20T00:14:58;2.50;68.00
3198;DHT22;1611;49.394;11.136;2022-11-20T00:17:25;2.60;68.30
3198;DHT22;1611;49.394;11.136;2022-11-20T00:19:52;2.60;67.90
3198;DHT22;1611;49.394;11.136;2022-11-20T00:22:18;2.70;68.10
3198;DHT22;1611;49.394;11.136;2022-11-20T00:24:45;2.60;68.00
3198;DHT22;1611;49.394;11.136;2022-11-20T00:27:13;2.60;67.60
3198;DHT22;1611;49.394;11.136;2022-11-20T00:29:40;2.60;67.60
3198;DHT22;1611;49.394;11.136;2022-11-20T00:32:07;2.60;68.30
3198;DHT22;1611;49.394;11.136;2022-11-20T00:34:34;2.60;68.30
3198;DHT22;1611;49.394;11.136;2022-11-20T00:37:00;2.70;68.20
3198;DHT22;1611;49.394;11.136;2022-11-20T00:39:27;2.60;68.00
3198;DHT22;1611;49.394;11.136;2022-11-20T00:41:54;2.70;67.90
3198;DHT22;1611;49.394;11.136;2022-11-20T00:44:22;2.60;67.80
3198;DHT22;1611;49.394;11.136;2022-11-20T00:46:49;2.60;68.20
3198;DHT22;1611;49.394;11.136;2022-11-20T00:49:15;2.70;68.30
3198;DHT22;1611;49.394;11.136;2022-11-20T00:51:42;2.70;67.70
3198;DHT22;1611;49.394;11.136;2022-11-20T00:54:09;2.70;67.30
3198;DHT22;1611;49.394;11.136;2022-11-20T00:56:36;2.80;68.10
3198;DHT22;1611;49.394;11.136;2022-11-20T00:59:03;2.80;68.00
3198;DHT22;1611;49.394;11.136;2022-11-20T01:01:31;2.70;67.90
3198;DHT22;1611;49.394;11.136;2022-11-20T01:03:59;2.80;67.80
3198;DHT22;1611;49.394;11.136;2022-11-20T01:06:28;2.80;68.30
3198;DHT22;1611;49.394;11.136;2022-11-20T01:08:57;2.70;68.10
3198;DHT22;1611;49.394;11.136;2022-11-20T01:11:26;2.70;67.90
3198;DHT22;1611;49.394;11.136;2022-11-20T01:13:54;2.80;67.90
3198;DHT22;1611;49.394;11.136;2022-11-20T01:16:24;2.70;67.90
3198;DHT22;1611;49.394;11.136;2022-11-20T01:18:54;2.70;68.60
3198;DHT22;1611;49.394;11.136;2022-11-20T01:21:24;2.60;68.90
3198;DHT22;1611;49.394;11.136;2022-11-20T01:23:51;2.80;68.80
3198;DHT22;1611;49.394;11.136;2022-11-20T01:26:19;2.60;68.50
3198;DHT22;1611;49.394;11.136;2022-11-20T01:28:47;2.70;68.10
3198;DHT22;1611;49.394;11.136;2022-11-20T01:31:16;2.60;68.40
3198;DHT22;1611;49.394;11.136;2022-11-20T01:33:44;2.70;68.90
3198;DHT22;1611;49.394;11.136;2022-11-20T01:36:13;2.70;68.60
3198;DHT22;1611;49.394;11.136;2022-11-20T01:38:41;2.60;68.30
3198;DHT22;1611;49.394;11.136;2022-11-20T01:41:09;2.70;68.90
3198;DHT22;1611;49.394;11.136;2022-11-20T01:43:36;2.70;68.90
3198;DHT22;1611;49.394;11.136;2022-11-20T01:46:19;2.70;69.10
3198;DHT22;1611;49.394;11.136;2022-11-20T01:48:51;2.70;68.60
3198;DHT22;1611;49.394;11.136;2022-11-20T01:51:26;2.70;69.10
3198;DHT22;1611;49.394;11.136;2022-11-20T01:53:55;2.70;69.50
3198;DHT22;1611;49.394;11.136;2022-11-20T01:56:24;2.70;69.10
3198;DHT22;1611;49.394;11.136;2022-11-20T01:58:56;2.70;69.10
3198;DHT22;1611;49.394;11.136;2022-11-20T02:01:23;2.80;68.80
3198;DHT22;1611;49.394;11.136;2022-11-20T02:03:50;2.80;68.90
3198;DHT22;1611;49.394;11.136;2022-11-20T02:06:22;2.80;68.50
3198;DHT22;1611;49.394;11.136;2022-11-20T02:08:51;2.80;68.30
3198;DHT22;1611;49.394;11.136;2022-11-20T02:11:18;2.70;68.80
3198;DHT22;1611;49.394;11.136;2022-11-20T02:13:45;2.80;69.40
3198;DHT22;1611;49.394;11.136;2022-11-20T02:16:15;2.80;69.20
3198;DHT22;1611;49.394;11.136;2022-11-20T02:18:43;2.80;68.80
3198;DHT22;1611;49.394;11.136;2022-11-20T02:21:20;2.80;68.80
3198;DHT22;1611;49.394;11.136;2022-11-20T02:24:04;3.00;69.00
3198;DHT22;1611;49.394;11.136;2022-11-20T02:26:33;3.00;69.10
3198;DHT22;1611;49.394;11.136;2022-11-20T02:29:02;2.90;68.90
3198;DHT22;1611;49.394;11.136;2022-11-20T02:31:33;2.80;69.20
3198;DHT22;1611;49.394;11.136;2022-11-20T02:34:00;2.80;69.50
3198;DHT22;1611;49.394;11.136;2022-11-20T02:36:28;2.70;70.10
3198;DHT22;1611;49.394;11.136;2022-11-20T02:38:57;2.80;70.00
3198;DHT22;1611;49.394;11.136;2022-11-20T02:41:32;2.90;69.50
3198;DHT22;1611;49.394;11.136;2022-11-20T02:43:59;3.00;69.50
3198;DHT22;1611;49.394;11.136;2022-11-20T02:46:26;3.00;69.30
3198;DHT22;1611;49.394;11.136;2022-11-20T02:48:52;3.00;68.90
3198;DHT22;1611;49.394;11.136;2022-11-20T02:51:19;3.00;68.70
3198;DHT22;1611;49.394;11.136;2022-11-20T02:53:46;3.00;68.90
3198;DHT22;1611;49.394;11.136;2022-11-20T02:56:13;3.00;68.50
3198;DHT22;1611;49.394;11.136;2022-11-20T02:58:41;2.90;69.00
3198;DHT22;1611;49.394;11.136;2022-11-20T03:01:08;3.00;69.00
3198;DHT22;1611;49.394;11.136;2022-11-20T03:03:35;3.00;69.10
3198;DHT22;1611;49.394;11.136;2022-11-20T03:06:02;3.00;70.00
3198;DHT22;1611;49.394;11.136;2022-11-20T03:08:28;2.90;69.00
3198;DHT22;1611;49.394;11.136;2022-11-20T03:10:55;3.00;68.90
3198;DHT22;1611;49.394;11.136;2022-11-20T03:13:22;2.90;69.00
3198;DHT22;1611;49.394;11.136;2022-11-20T03:15:52;3.00;69.00
3198;DHT22;1611;49.394;11.136;2022-11-20T03:18:19;2.90;69.30
3198;DHT22;1611;49.394;11.136;2022-11-20T03:20:46;2.80;69.30
3198;DHT22;1611;49.394;11.136;2022-11-20T03:23:13;2.90;69.30
3198;DHT22;1611;49.394;11.136;2022-11-20T03:25:39;2.90;69.60
3198;DHT22;1611;49.394;11.136;2022-11-20T03:28:06;2.90;69.60
3198;DHT22;1611;49.394;11.136;2022-11-20T03:30:33;2.90;70.00
3198;DHT22;1611;49.394;11.136;2022-11-20T03:33:02;3.00;70.60
3198;DHT22;1611;49.394;11.136;2022-11-20T03:35:29;2.90;70.40
3198;DHT22;1611;49.394;11.136;2022-11-20T03:37:57;2.90;70.30
3198;DHT22;1611;49.394;11.136;2022-11-20T03:40:24;2.90;70.20
3198;DHT22;1611;49.394;11.136;2022-11-20T03:42:51;3.00;69.60
3198;DHT22;1611;49.394;11.136;2022-11-20T03:45:18;2.90;69.70
3198;DHT22;1611;49.394;11.136;2022-11-20T03:47:45;2.90;69.60
3198;DHT22;1611;49.394;11.136;2022-11-20T03:50:14;3.00;69.80
3198;DHT22;1611;49.394;11.136;2022-11-20T03:52:41;3.00;69.60
3198;DHT22;1611;49.394;11.136;2022-11-20T03:55:08;3.00;69.70
3198;DHT22;1611;49.394;11.136;2022-11-20T03:57:35;3.00;69.70
3198;DHT22;1611;49.394;11.136;2022-11-20T04:00:03;2.90;69.60
3198;DHT22;1611;49.394;11.136;2022-11-20T04:02:30;2.90;69.90
3198;DHT22;1611;49.394;11.136;2022-11-20T04:04:57;3.00;69.80
3198;DHT22;1611;49.394;11.136;2022-11-20T04:07:25;3.00;69.40
3198;DHT22;1611;49.394;11.136;2022-11-20T04:09:52;3.00;69.80
3198;DHT22;1611;49.394;11.136;2022-11-20T04:12:19;3.00;70.00
3198;DHT22;1611;49.394;11.136;2022-11-20T04:14:45;3.00;69.80
3198;DHT22;1611;49.394;11.136;2022-11-20T04:17:12;2.90;70.20
3198;DHT22;1611;49.394;11.136;2022-11-20T04:19:39;3.00;70.50
3198;DHT22;1611;49.394;11.136;2022-11-20T04:22:06;2.90;69.90
3198;DHT22;1611;49.394;11.136;2022-11-20T04:24:34;3.00;70.30
3198;DHT22;1611;49.394;11.136;2022-11-20T04:27:00;3.00;70.00
3198;DHT22;1611;49.394;11.136;2022-11-20T04:29:27;3.10;70.00
3198;DHT22;1611;49.394;11.136;2022-11-20T04:31:54;3.10;69.70
3198;DHT22;1611;49.394;11.136;2022-11-20T04:34:21;3.10;69.50
3198;DHT22;1611;49.394;11.136;2022-11-20T04:36:48;3.00;69.60
3198;DHT22;1611;49.394;11.136;2022-11-20T04:39:15;3.00;69.50
3198;DHT22;1611;49.394;11.136;2022-11-20T04:41:43;3.00;70.10
3198;DHT22;1611;49.394;11.136;2022-11-20T04:44:10;3.00;70.10
3198;DHT22;1611;49.394;11.136;2022-11-20T04:46:39;3.20;70.10
3198;DHT22;1611;49.394;11.136;2022-11-20T04:49:07;3.20;69.90
3198;DHT22;1611;49.394;11.136;2022-11-20T04:51:34;3.10;69.80
3198;DHT22;1611;49.394;11.136;2022-11-20T04:54:00;3.10;70.00
3198;DHT22;1611;49.394;11.136;2022-11-20T04:56:27;3.10;70.10
3198;DHT22;1611;49.394;11.136;2022-11-20T04:58:55;3.10;69.70
3198;DHT22;1611;49.394;11.136;2022-11-20T05:01:26;3.10;69.70
3198;DHT22;1611;49.394;11.136;2022-11-20T05:03:52;3.10;69.40
3198;DHT22;1611;49.394;11.136;2022-11-20T05:06:20;3.20;69.10
3198;DHT22;1611;49.394;11.136;2022-11-20T05:08:47;3.10;69.60
3198;DHT22;1611;49.394;11.136;2022-11-20T05:11:16;3.10;69.30
3198;DHT22;1611;49.394;11.136;2022-11-20T05:13:43;3.10;70.10
3198;DHT22;1611;49.394;11.136;2022-11-20T05:16:13;3.10;70.00
3198;DHT22;1611;49.394;11.136;2022-11-20T05:18:40;3.20;70.00
3198;DHT22;1611;49.394;11.136;2022-11-20T05:21:09;3.20;69.70
3198;DHT22;1611;49.394;11.136;2022-11-20T05:23:36;3.10;69.80
3198;DHT22;1611;49.394;11.136;2022-11-20T05:26:04;3.10;70.00
3198;DHT22;1611;49.394;11.136;2022-11-20T05:28:32;3.20;69.40
3198;DHT22;1611;49.394;11.136;2022-11-20T05:31:04;3.10;69.80
3198;DHT22;1611;49.394;11.136;2022-11-20T05:33:33;3.10;69.50
3198;DHT22;1611;49.394;11.136;2022-11-20T05:36:00;3.10;70.20
3198;DHT22;1611;49.394;11.136;2022-11-20T05:38:27;3.10;69.80
3198;DHT22;1611;49.394;11.136;2022-11-20T05:40:54;3.10;69.80
3198;DHT22;1611;49.394;11.136;2022-11-20T05:43:21;3.20;69.70
3198;DHT22;1611;49.394;11.136;2022-11-20T05:45:52;3.10;70.00
3198;DHT22;1611;49.394;11.136;2022-11-20T05:48:19;3.10;70.30
3198;DHT22;1611;49.394;11.136;2022-11-20T05:50:47;3.20;70.40
3198;DHT22;1611;49.394;11.136;2022-11-20T05:53:14;3.20;70.10
3198;DHT22;1611;49.394;11.136;2022-11-20T05:55:41;3.10;70.10
3198;DHT22;1611;49.394;11.136;2022-11-20T05:58:08;3.10;70.30
3198;DHT22;1611;49.394;11.136;2022-11-20T06:00:34;3.00;70.80
3198;DHT22;1611;49.394;11.136;2022-11-20T06:03:01;3.00;70.60
3198;DHT22;1611;49.394;11.136;2022-11-20T06:05:28;3.10;70.60
3198;DHT22;1611;49.394;11.136;2022-11-20T06:07:56;3.00;70.50
3198;DHT22;1611;49.394;11.136;2022-11-20T06:10:23;3.10;70.80
3198;DHT22;1611;49.394;11.136;2022-11-20T06:12:50;3.10;71.00
3198;DHT22;1611;49.394;11.136;2022-11-20T06:15:17;3.00;70.80
3198;DHT22;1611;49.394;11.136;2022-11-20T06:17:43;3.00;71.10
3198;DHT22;1611;49.394;11.136;2022-11-20T06:20:10;3.00;71.30
3198;DHT22;1611;49.394;11.136;2022-11-20T06:22:37;3.00;71.40
3198;DHT22;1611;49.394;11.136;2022-11-20T06:25:06;2.90;71.30
3198;DHT22;1611;49.394;11.136;2022-11-20T06:27:32;2.90;71.80
3198;DHT22;1611;49.394;11.136;2022-11-20T06:29:59;3.00;71.70
3198;DHT22;1611;49.394;11.136;2022-11-20T06:32:26;3.00;71.50
3198;DHT22;1611;49.394;11.136;2022-11-20T06:34:53;2.90;71.40
3198;DHT22;1611;49.394;11.136;2022-11-20T06:37:19;2.90;71.40
3198;DHT22;1611;49.394;11.136;2022-11-20T06:39:46;3.00;71.40
3198;DHT22;1611;49.394;11.136;2022-11-20T06:42:14;2.90;71.70
3198;DHT22;1611;49.394;11.136;2022-11-20T06:44:41;2.90;72.80
3198;DHT22;1611;49.394;11.136;2022-11-20T06:47:08;2.90;72.20
3198;DHT22;1611;49.394;11.136;2022-11-20T06:49:35;2.90;72.40
3198;DHT22;1611;49.394;11.136;2022-11-20T06:52:03;3.00;72.10
3198;DHT22;1611;49.394;11.136;2022-11-20T06:54:30;2.90;71.80
3198;DHT22;1611;49.394;11.136;2022-11-20T06:56:57;3.00;72.00
3198;DHT22;1611;49.394;11.136;2022-11-20T06:59:25;3.00;72.00
3198;DHT22;1611;49.394;11.136;2022-11-20T07:01:52;3.00;72.30
3198;DHT22;1611;49.394;11.136;2022-11-20T07:04:19;3.10;72.00
3198;DHT22;1611;49.394;11.136;2022-11-20T07:06:45;3.10;71.70
3198;DHT22;1611;49.394;11.136;2022-11-20T07:09:12;3.10;71.60
3198;DHT22;1611;49.394;11.136;2022-11-20T07:11:39;3.10;71.00
3198;DHT22;1611;49.394;11.136;2022-11-20T07:14:06;3.10;70.80
3198;DHT22;1611;49.394;11.136;2022-11-20T07:16:34;3.10;71.00
3198;DHT22;1611;49.394;11.136;2022-11-20T07:19:00;3.10;71.00
3198;DHT22;1611;49.394;11.136;2022-11-20T07:21:27;3.10;71.30
3198;DHT22;1611;49.394;11.136;2022-11-20T07:23:54;3.00;70.80
3198;DHT22;1611;49.394;11.136;2022-11-20T07:26:21;3.00;71.40
3198;DHT22;1611;49.394;11.136;2022-11-20T07:28:48;3.00;71.30
3198;DHT22;1611;49.394;11.136;2022-11-20T07:31:14;3.30;76.70
3198;DHT22;1611;49.394;11.136;2022-11-20T07:33:43;3.90;81.70
3198;DHT22;1611;49.394;11.136;2022-11-20T07:36:10;4.10;80.60
3198;DHT22;1611;49.394;11.136;2022-11-20T07:38:37;4.10;79.40
3198;DHT22;1611;49.394;11.136;2022-11-20T07:41:04;4.20;76.80
3198;DHT22;1611;49.394;11.136;2022-11-20T07:43:31;3.90;71.30
3198;DHT22;1611;49.394;11.136;2022-11-20T07:45:58;3.90;69.50
3198;DHT22;1611;49.394;11.136;2022-11-20T07:48:25;3.80;68.60
3198;DHT22;1611;49.394;11.136;2022-11-20T07:50:54;3.70;68.50
3198;DHT22;1611;49.394;11.136;2022-11-20T07:53:21;3.70;68.70
3198;DHT22;1611;49.394;11.136;2022-11-20T07:55:48;3.60;68.50
3198;DHT22;1611;49.394;11.136;2022-11-20T07:58:17;3.50;68.40
3198;DHT22;1611;49.394;11.136;2022-11-20T08:00:44;3.60;68.70
3198;DHT22;1611;49.394;11.136;2022-11-20T08:03:11;3.50;68.60
3198;DHT22;1611;49.394;11.136;2022-11-20T08:05:38;3.50;69.80
3198;DHT22;1611;49.394;11.136;2022-11-20T08:08:06;3.50;68.50
3198;DHT22;1611;49.394;11.136;2022-11-20T08:10:33;3.40;68.70
3198;DHT22;1611;49.394;11.136;2022-11-20T08:13:00;3.50;69.00
3198;DHT22;1611;49.394;11.136;2022-11-20T08:15:48;3.50;69.60
3198;DHT22;1611;49.394;11.136;2022-11-20T08:18:15;3.50;69.30
3198;DHT22;1611;49.394;11.136;2022-11-20T08:20:42;3.50;69.30
3198;DHT22;1611;49.394;11.136;2022-11-20T08:23:11;3.50;69.30
3198;DHT22;1611;49.394;11.136;2022-11-20T08:25:38;3.50;69.30
3198;DHT22;1611;49.394;11.136;2022-11-20T08:28:08;3.50;69.20
3198;DHT22;1611;49.394;11.136;2022-11-20T08:30:36;3.60;69.10
3198;DHT22;1611;49.394;11.136;2022-11-20T08:33:04;3.40;68.70
3198;DHT22;1611;49.394;11.136;2022-11-20T08:35:33;3.50;69.20
3198;DHT22;1611;49.394;11.136;2022-11-20T08:38:01;3.60;69.00
3198;DHT22;1611;49.394;11.136;2022-11-20T08:40:29;3.60;68.80
3198;DHT22;1611;49.394;11.136;2022-11-20T08:42:56;3.70;69.00
3198;DHT22;1611;49.394;11.136;2022-11-20T08:45:23;3.70;69.40
3198;DHT22;1611;49.394;11.136;2022-11-20T08:47:50;3.80;68.80
3198;DHT22;1611;49.394;11.136;2022-11-20T08:50:17;3.90;68.40
3198;DHT22;1611;49.394;11.136;2022-11-20T08:52:44;4.00;67.40
3198;DHT22;1611;49.394;11.136;2022-11-20T08:55:11;3.90;67.10
3198;DHT22;1611;49.394;11.136;2022-11-20T08:57:40;4.10;67.10
3198;DHT22;1611;49.394;11.136;2022-11-20T09:00:07;4.10;66.90
3198;DHT22;1611;49.394;11.136;2022-11-20T09:02:35;4.10;66.60
3198;DHT22;1611;49.394;11.136;2022-11-20T09:05:02;4.20;66.40
3198;DHT22;1611;49.394;11.136;2022-11-20T09:07:29;4.10;66.30
3198;DHT22;1611;49.394;11.136;2022-11-20T09:09:56;4.00;65.80
3198;DHT22;1611;49.394;11.136;2022-11-20T09:12:23;4.00;66.20
3198;DHT22;1611;49.394;11.136;2022-11-20T09:14:51;3.90;66.70
3198;DHT22;1611;49.394;11.136;2022-11-20T09:17:18;3.90;66.80
3198;DHT22;1611;49.394;11.136;2022-11-20T09:19:45;3.80;67.00
3198;DHT22;1611;49.394;11.136;2022-11-20T09:22:12;3.70;67.30
3198;DHT22;1611;49.394;11.136;2022-11-20T09:24:39;3.70;68.40
3198;DHT22;1611;49.394;11.136;2022-11-20T09:27:06;3.80;68.60
3198;DHT22;1611;49.394;11.136;2022-11-20T09:29:33;3.90;68.40
3198;DHT22;1611;49.394;11.136;2022-11-20T09:32:01;3.90;67.30
3198;DHT22;1611;49.394;11.136;2022-11-20T09:34:28;4.00;67.00
3198;DHT22;1611;49.394;11.136;2022-11-20T09:36:54;3.90;66.90
3198;DHT22;1611;49.394;11.136;2022-11-20T09:39:21;4.00;67.00
3198;DHT22;1611;49.394;11.136;2022-11-20T09:42:01;4.10;67.70
3198;DHT22;1611;49.394;11.136;2022-11-20T09:44:49;4.10;67.20
3198;DHT22;1611;49.394;11.136;2022-11-20T09:47:24;4.30;66.10
3198;DHT22;1611;49.394;11.136;2022-11-20T09:50:02;4.20;66.40
3198;DHT22;1611;49.394;11.136;2022-11-20T09:52:39;4.20;65.80
3198;DHT22;1611;49.394;11.136;2022-11-20T09:55:10;4.20;65.80
3198;DHT22;1611;49.394;11.136;2022-11-20T09:57:42;4.20;65.90
3198;DHT22;1611;49.394;11.136;2022-11-20T10:00:12;4.20;65.80
3198;DHT22;1611;49.394;11.136;2022-11-20T10:02:44;4.20;65.80
3198;DHT22;1611;49.394;11.136;2022-11-20T10:05:18;4.10;66.30
3198;DHT22;1611;49.394;11.136;2022-11-20T10:07:50;4.00;66.50
3198;DHT22;1611;49.394;11.136;2022-11-20T10:10:29;4.10;67.00
3198;DHT22;1611;49.394;11.136;2022-11-20T10:13:09;4.00;66.90
3198;DHT22;1611;49.394;11.136;2022-11-20T10:15:43;3.90;66.60
3198;DHT22;1611;49.394;11.136;2022-11-20T10:18:23;4.00;67.20
3198;DHT22;1611;49.394;11.136;2022-11-20T10:21:00;3.90;67.70
3198;DHT22;1611;49.394;11.136;2022-11-20T10:23:46;3.90;67.60
3198;DHT22;1611;49.394;11.136;2022-11-20T10:26:21;3.80;67.60
3198;DHT22;1611;49.394;11.136;2022-11-20T10:28:56;3.80;67.60
3198;DHT22;1611;49.394;11.136;2022-11-20T10:31:31;3.80;68.20
3198;DHT22;1611;49.394;11.136;2022-11-20T10:34:05;3.80;68.50
3198;DHT22;1611;49.394;11.136;2022-11-20T10:36:35;3.80;68.40
3198;DHT22;1611;49.394;11.136;2022-11-20T10:39:07;3.80;68.30
3198;DHT22;1611;49.394;11.136;2022-11-20T10:41:41;3.80;68.30
3198;DHT22;1611;49.394;11.136;2022-11-20T10:44:14;3.90;68.50
3198;DHT22;1611;49.394;11.136;2022-11-20T10:47:01;3.90;68.00
3198;DHT22;1611;49.394;11.136;2022-11-20T10:49:30;3.90;68.00
3198;DHT22;1611;49.394;11.136;2022-11-20T10:52:05;3.90;68.80
3198;DHT22;1611;49.394;11.136;2022-11-20T10:54:39;3.90;68.60
3198;DHT22;1611;49.394;11.136;2022-11-20T10:57:15;3.90;68.40
3198;DHT22;1611;49.394;11.136;2022-11-20T11:00:02;3.90;68.90
3198;DHT22;1611;49.394;11.136;2022-11-20T11:02:37;3.90;68.60
3198;DHT22;1611;49.394;11.136;2022-11-20T11:05:16;3.90;68.40
3198;DHT22;1611;49.394;11.136;2022-11-20T11:07:45;4.00;68.60
3198;DHT22;1611;49.394;11.136;2022-11-20T11:10:21;4.00;68.20
3198;DHT22;1611;49.394;11.136;2022-11-20T11:12:49;4.10;68.50
3198;DHT22;1611;49.394;11.136;2022-11-20T11:15:26;4.20;67.90
3198;DHT22;1611;49.394;11.136;2022-11-20T11:17:53;4.30;68.10
3198;DHT22;1611;49.394;11.136;2022-11-20T11:20:23;4.30;68.30
3198;DHT22;1611;49.394;11.136;2022-11-20T11:22:52;4.50;68.30
3198;DHT22;1611;49.394;11.136;2022-11-20T11:25:31;4.60;67.70
3198;DHT22;1611;49.394;11.136;2022-11-20T11:28:01;4.60;68.60
3198;DHT22;1611;49.394;11.136;2022-11-20T11:30:40;4.60;70.40
3198;DHT22;1611;49.394;11.136;2022-11-20T11:33:11;4.70;69.90
3198;DHT22;1611;49.394;11.136;2022-11-20T11:35:44;4.80;69.70
3198;DHT22;1611;49.394;11.136;2022-11-20T11:38:15;4.90;71.50
3198;DHT22;1611;49.394;11.136;2022-11-20T11:40:43;5.00;77.30
3198;DHT22;1611;49.394;11.136;2022-11-20T11:43:18;5.00;75.90
3198;DHT22;1611;49.394;11.136;2022-11-20T11:46:00;4.90;73.30
3198;DHT22;1611;49.394;11.136;2022-11-20T11:48:27;4.90;72.90
3198;DHT22;1611;49.394;11.136;2022-11-20T11:50:55;4.90;73.00
3198;DHT22;1611;49.394;11.136;2022-11-20T11:53:23;5.00;72.50
3198;DHT22;1611;49.394;11.136;2022-11-20T11:55:56;4.90;71.80
3198;DHT22;1611;49.394;11.136;2022-11-20T11:58:34;5.00;71.90
3198;DHT22;1611;49.394;11.136;2022-11-20T12:01:15;5.10;71.60
3198;DHT22;1611;49.394;11.136;2022-11-20T12:03:52;5.10;71.10
3198;DHT22;1611;49.394;11.136;2022-11-20T12:06:23;5.20;70.50
3198;DHT22;1611;49.394;11.136;2022-11-20T12:08:55;5.10;70.00
3198;DHT22;1611;49.394;11.136;2022-11-20T12:11:30;5.10;69.30
3198;DHT22;1611;49.394;11.136;2022-11-20T12:14:04;5.10;69.80
3198;DHT22;1611;49.394;11.136;2022-11-20T12:16:37;5.20;70.00
3198;DHT22;1611;49.394;11.136;2022-11-20T12:19:09;5.20;70.00
3198;DHT22;1611;49.394;11.136;2022-11-20T12:21:50;5.20;70.10
3198;DHT22;1611;49.394;11.136;2022-11-20T12:24:35;5.20;70.50
3198;DHT22;1611;49.394;11.136;2022-11-20T12:27:23;5.30;70.50
3198;DHT22;1611;49.394;11.136;2022-11-20T12:30:00;5.30;70.40
3198;DHT22;1611;49.394;11.136;2022-11-20T12:32:49;5.40;70.40
3198;DHT22;1611;49.394;11.136;2022-11-20T12:35:32;5.50;70.10
3198;DHT22;1611;49.394;11.136;2022-11-20T12:41:08;5.60;69.50
3198;DHT22;1611;49.394;11.136;2022-11-20T12:43:41;5.60;69.70
3198;DHT22;1611;49.394;11.136;2022-11-20T12:46:30;5.60;69.60
3198;DHT22;1611;49.394;11.136;2022-11-20T12:49:27;5.60;68.90
3198;DHT22;1611;49.394;11.136;2022-11-20T12:52:14;5.70;68.90
3198;DHT22;1611;49.394;11.136;2022-11-20T12:55:09;5.80;68.40
3198;DHT22;1611;49.394;11.136;2022-11-20T12:57:43;5.90;68.10
3198;DHT22;1611;49.394;11.136;2022-11-20T13:00:16;5.90;68.10
3198;DHT22;1611;49.394;11.136;2022-11-20T13:03:06;5.90;68.10
3198;DHT22;1611;49.394;11.136;2022-11-20T13:05:46;5.90;68.10
3198;DHT22;1611;49.394;11.136;2022-11-20T13:08:20;5.80;67.60
3198;DHT22;1611;49.394;11.136;2022-11-20T13:10:54;5.90;67.70
3198;DHT22;1611;49.394;11.136;2022-11-20T13:13:28;5.70;68.10
3198;DHT22;1611;49.394;11.136;2022-11-20T13:16:00;5.80;68.50
3198;DHT22;1611;49.394;11.136;2022-11-20T13:18:28;5.70;69.00
3198;DHT22;1611;49.394;11.136;2022-11-20T13:21:00;5.70;69.10
3198;DHT22;1611;49.394;11.136;2022-11-20T13:23:27;5.70;69.00
3198;DHT22;1611;49.394;11.136;2022-11-20T13:26:13;5.60;69.00
3198;DHT22;1611;49.394;11.136;2022-11-20T13:28:40;5.80;77.40
3198;DHT22;1611;49.394;11.136;2022-11-20T13:31:30;6.00;79.00
3198;DHT22;1611;49.394;11.136;2022-11-20T13:33:58;5.90;77.90
3198;DHT22;1611;49.394;11.136;2022-11-20T13:36:26;6.00;78.20
3198;DHT22;1611;49.394;11.136;2022-11-20T13:38:55;5.90;76.50
3198;DHT22;1611;49.394;11.136;2022-11-20T13:41:28;6.10;76.20
3198;DHT22;1611;49.394;11.136;2022-11-20T13:43:58;6.00;73.10
3198;DHT22;1611;49.394;11.136;2022-11-20T13:46:36;6.10;73.50
3198;DHT22;1611;49.394;11.136;2022-11-20T13:49:08;6.10;70.60
3198;DHT22;1611;49.394;11.136;2022-11-20T13:51:40;5.90;68.90
3198;DHT22;1611;49.394;11.136;2022-11-20T13:57:19;5.60;68.90
3198;DHT22;1611;49.394;11.136;2022-11-20T13:59:57;5.60;69.50
3198;DHT22;1611;49.394;11.136;2022-11-20T14:02:27;5.60;69.90
3198;DHT22;1611;49.394;11.136;2022-11-20T14:04:57;5.50;70.50
3198;DHT22;1611;49.394;11.136;2022-11-20T14:07:31;5.50;70.90
3198;DHT22;1611;49.394;11.136;2022-11-20T14:09:58;5.50;71.90
3198;DHT22;1611;49.394;11.136;2022-11-20T14:12:30;5.50;71.40
3198;DHT22;1611;49.394;11.136;2022-11-20T14:14:57;5.50;71.80
3198;DHT22;1611;49.394;11.136;2022-11-20T14:17:31;5.60;71.40
3198;DHT22;1611;49.394;11.136;2022-11-20T14:20:00;5.50;71.50
3198;DHT22;1611;49.394;11.136;2022-11-20T14:22:28;5.50;71.10
3198;DHT22;1611;49.394;11.136;2022-11-20T14:25:06;5.50;71.50
3198;DHT22;1611;49.394;11.136;2022-11-20T14:27:36;5.50;71.20
3198;DHT22;1611;49.394;11.136;2022-11-20T14:30:05;5.50;71.00
3198;DHT22;1611;49.394;11.136;2022-11-20T14:32:35;5.40;70.90
3198;DHT22;1611;49.394;11.136;2022-11-20T14:35:07;5.40;71.20
3198;DHT22;1611;49.394;11.136;2022-11-20T14:37:37;5.30;71.60
3198;DHT22;1611;49.394;11.136;2022-11-20T14:40:24;5.30;72.00
3198;DHT22;1611;49.394;11.136;2022-11-20T14:42:53;5.40;72.00
3198;DHT22;1611;49.394;11.136;2022-11-20T14:45:21;5.30;72.10
3198;DHT22;1611;49.394;11.136;2022-11-20T14:47:48;5.30;72.30
3198;DHT22;1611;49.394;11.136;2022-11-20T14:50:22;5.40;72.00
3198;DHT22;1611;49.394;11.136;2022-11-20T14:52:53;5.30;72.00
3198;DHT22;1611;49.394;11.136;2022-11-20T14:55:30;5.30;72.10
3198;DHT22;1611;49.394;11.136;2022-11-20T14:58:00;5.20;72.40
3198;DHT22;1611;49.394;11.136;2022-11-20T15:00:29;5.30;72.90
3198;DHT22;1611;49.394;11.136;2022-11-20T15:02:56;5.20;73.00
3198;DHT22;1611;49.394;11.136;2022-11-20T15:05:24;5.20;73.00
3198;DHT22;1611;49.394;11.136;2022-11-20T15:08:04;5.30;73.10
3198;DHT22;1611;49.394;11.136;2022-11-20T15:10:31;5.20;72.70
3198;DHT22;1611;49.394;11.136;2022-11-20T15:13:02;5.30;73.00
3198;DHT22;1611;49.394;11.136;2022-11-20T15:15:32;5.30;72.80
3198;DHT22;1611;49.394;11.136;2022-11-20T15:18:01;5.30;72.60
3198;DHT22;1611;49.394;11.136;2022-11-20T15:20:30;5.20;72.40
3198;DHT22;1611;49.394;11.136;2022-11-20T15:22:57;5.20;72.40
3198;DHT22;1611;49.394;11.136;2022-11-20T15:25:25;5.20;72.60
3198;DHT22;1611;49.394;11.136;2022-11-20T15:27:54;5.20;73.50
3198;DHT22;1611;49.394;11.136;2022-11-20T15:30:23;5.20;72.90
3198;DHT22;1611;49.394;11.136;2022-11-20T15:32:51;5.10;72.70
3198;DHT22;1611;49.394;11.136;2022-11-20T15:35:18;5.20;72.60
3198;DHT22;1611;49.394;11.136;2022-11-20T15:37:44;5.10;72.80
3198;DHT22;1611;49.394;11.136;2022-11-20T15:40:11;5.10;72.40
3198;DHT22;1611;49.394;11.136;2022-11-20T15:42:38;5.20;72.40
3198;DHT22;1611;49.394;11.136;2022-11-20T15:45:29;5.10;72.80
3198;DHT22;1611;49.394;11.136;2022-11-20T15:47:56;5.10;72.90
3198;DHT22;1611;49.394;11.136;2022-11-20T15:50:26;5.00;73.10
3198;DHT22;1611;49.394;11.136;2022-11-20T15:52:53;5.10;73.70
3198;DHT22;1611;49.394;11.136;2022-11-20T15:55:20;5.10;73.40
3198;DHT22;1611;49.394;11.136;2022-11-20T15:57:47;5.00;73.00
3198;DHT22;1611;49.394;11.136;2022-11-20T16:00:15;5.00;72.50
3198;DHT22;1611;49.394;11.136;2022-11-20T16:02:43;5.00;73.00
3198;DHT22;1611;49.394;11.136;2022-11-20T16:05:11;5.00;72.80
3198;DHT22;1611;49.394;11.136;2022-11-20T16:07:38;5.00;73.20
3198;DHT22;1611;49.394;11.136;2022-11-20T16:10:05;4.80;73.20
3198;DHT22;1611;49.394;11.136;2022-11-20T16:12:32;4.80;73.60
3198;DHT22;1611;49.394;11.136;2022-11-20T16:15:16;4.90;73.80
3198;DHT22;1611;49.394;11.136;2022-11-20T16:18:02;4.90;73.40
3198;DHT22;1611;49.394;11.136;2022-11-20T16:20:29;4.90;73.20
3198;DHT22;1611;49.394;11.136;2022-11-20T16:22:56;4.90;73.10
3198;DHT22;1611;49.394;11.136;2022-11-20T16:25:23;4.90;73.30